JRL2T EPLB-EPLB
Flight info
| Callsign | JRL2T |
|---|---|
| Flight time | 0h 11m |
| Altitude | 4000 |
| Route | LUZ |
| Aircraft | B738/M-SDE2E3FGHIRWXY/LB1 |
Departure
| Time | 2026-04-11 09:50 |
|---|---|
| Airport | Lublin Airport (EPLB) |
Arrival
| Time | 2026-04-11 10:01 |
|---|---|
| Airport | Lublin Airport (EPLB) |
| Time | Latitude | Longitude | Altitude | Speed | Heading |
|---|---|---|---|---|---|
| 2026-04-11 09:10 | 51.23662 | 22.71539 | 652 ft | 0 kts | 167° |
| 2026-04-11 09:42 | 51.23667 | 22.71537 | 629 ft | 2 kts | 167° |
| 2026-04-11 09:42 | 51.23687 | 22.71530 | 626 ft | 3 kts | 167° |
| 2026-04-11 09:43 | 51.23726 | 22.71516 | 655 ft | 3 kts | 167° |
| 2026-04-11 09:43 | 51.23740 | 22.71511 | 655 ft | 2 kts | 167° |
| 2026-04-11 09:45 | 51.23737 | 22.71509 | 654 ft | 3 kts | 191° |
| 2026-04-11 09:45 | 51.23725 | 22.71493 | 653 ft | 3 kts | 237° |
| 2026-04-11 09:45 | 51.23729 | 22.71464 | 652 ft | 1 kts | 307° |
| 2026-04-11 09:46 | 51.23760 | 22.71445 | 652 ft | 7 kts | 346° |
| 2026-04-11 09:46 | 51.23810 | 22.71427 | 652 ft | 8 kts | 347° |
| 2026-04-11 09:46 | 51.23883 | 22.71399 | 648 ft | 15 kts | 347° |
| 2026-04-11 09:46 | 51.23991 | 22.71367 | 647 ft | 11 kts | 11° |
| 2026-04-11 09:47 | 51.24031 | 22.71455 | 646 ft | 16 kts | 77° |
| 2026-04-11 09:47 | 51.24064 | 22.71679 | 642 ft | 25 kts | 77° |
| 2026-04-11 09:47 | 51.24113 | 22.72014 | 641 ft | 35 kts | 78° |
| 2026-04-11 09:47 | 51.24169 | 22.72403 | 640 ft | 35 kts | 77° |
| 2026-04-11 09:48 | 51.24222 | 22.72774 | 638 ft | 33 kts | 77° |
| 2026-04-11 09:48 | 51.24280 | 22.73037 | 639 ft | 8 kts | 66° |
| 2026-04-11 09:48 | 51.24277 | 22.73053 | 637 ft | 2 kts | 133° |
| 2026-04-11 09:48 | 51.24269 | 22.73056 | 636 ft | 1 kts | 182° |
| 2026-04-11 09:49 | 51.24258 | 22.73040 | 638 ft | 2 kts | 238° |
| 2026-04-11 09:49 | 51.24252 | 22.72984 | 639 ft | 10 kts | 258° |
| 2026-04-11 09:49 | 51.24206 | 22.72659 | 639 ft | 63 kts | 257° |
| 2026-04-11 09:49 | 51.24057 | 22.71628 | 644 ft | 126 kts | 257° |
| 2026-04-11 09:50 | 51.23823 | 22.70035 | 791 ft | 156 kts | 259° |
| 2026-04-11 09:50 | 51.23562 | 22.68262 | 1054 ft | 175 kts | 259° |
| 2026-04-11 09:50 | 51.23304 | 22.66371 | 1302 ft | 171 kts | 260° |
| 2026-04-11 09:50 | 51.23270 | 22.64543 | 1330 ft | 165 kts | 290° |
| 2026-04-11 09:51 | 51.23983 | 22.63179 | 1448 ft | 162 kts | 332° |
| 2026-04-11 09:51 | 51.25116 | 22.62868 | 1394 ft | 169 kts | 8° |
| 2026-04-11 09:51 | 51.26129 | 22.63797 | 1406 ft | 175 kts | 47° |
| 2026-04-11 09:51 | 51.26583 | 22.65622 | 1428 ft | 183 kts | 78° |
| 2026-04-11 09:52 | 51.26778 | 22.67639 | 1290 ft | 186 kts | 78° |
| 2026-04-11 09:52 | 51.27011 | 22.69656 | 1314 ft | 178 kts | 76° |
| 2026-04-11 09:52 | 51.27252 | 22.71569 | 1418 ft | 179 kts | 76° |
| 2026-04-11 09:52 | 51.27473 | 22.73491 | 1406 ft | 177 kts | 77° |
| 2026-04-11 09:53 | 51.27693 | 22.75396 | 1407 ft | 172 kts | 77° |
| 2026-04-11 09:53 | 51.27909 | 22.77307 | 1367 ft | 180 kts | 79° |
| 2026-04-11 09:53 | 51.27820 | 22.79289 | 1338 ft | 180 kts | 112° |
| 2026-04-11 09:53 | 51.27041 | 22.80721 | 1338 ft | 166 kts | 154° |
| 2026-04-11 09:54 | 51.25984 | 22.80940 | 1292 ft | 149 kts | 204° |
| 2026-04-11 09:54 | 51.25278 | 22.79949 | 1253 ft | 127 kts | 245° |
| 2026-04-11 09:54 | 51.25045 | 22.78626 | 1176 ft | 128 kts | 264° |
| 2026-04-11 09:54 | 51.24858 | 22.77259 | 1110 ft | 122 kts | 260° |
| 2026-04-11 09:55 | 51.24676 | 22.75943 | 1019 ft | 122 kts | 261° |
| 2026-04-11 09:55 | 51.24484 | 22.74624 | 878 ft | 124 kts | 261° |
| 2026-04-11 09:55 | 51.24294 | 22.73280 | 719 ft | 123 kts | 259° |
| 2026-04-11 09:55 | 51.24112 | 22.72002 | 641 ft | 108 kts | 257° |
| 2026-04-11 09:56 | 51.23950 | 22.70846 | 648 ft | 111 kts | 261° |
| 2026-04-11 09:56 | 51.23749 | 22.69612 | 642 ft | 120 kts | 258° |
| 2026-04-11 09:56 | 51.23540 | 22.68133 | 918 ft | 152 kts | 261° |
| 2026-04-11 09:56 | 51.23374 | 22.66391 | 1436 ft | 158 kts | 276° |
| 2026-04-11 09:57 | 51.23822 | 22.64772 | 1421 ft | 169 kts | 319° |
| 2026-04-11 09:57 | 51.24936 | 22.64204 | 1454 ft | 180 kts | 7° |
| 2026-04-11 09:57 | 51.25948 | 22.65335 | 1515 ft | 187 kts | 59° |
| 2026-04-11 09:57 | 51.26243 | 22.67326 | 1582 ft | 189 kts | 79° |
| 2026-04-11 09:58 | 51.26464 | 22.69393 | 1607 ft | 188 kts | 75° |
| 2026-04-11 09:58 | 51.26740 | 22.71439 | 1682 ft | 188 kts | 75° |
| 2026-04-11 09:58 | 51.27006 | 22.73509 | 1513 ft | 193 kts | 75° |
| 2026-04-11 09:58 | 51.27263 | 22.75661 | 1445 ft | 195 kts | 76° |
| 2026-04-11 09:59 | 51.27506 | 22.77717 | 1377 ft | 186 kts | 77° |
| 2026-04-11 09:59 | 51.27414 | 22.79628 | 1422 ft | 164 kts | 120° |
| 2026-04-11 09:59 | 51.26575 | 22.80692 | 1322 ft | 151 kts | 171° |
| 2026-04-11 09:59 | 51.25591 | 22.80368 | 1360 ft | 145 kts | 221° |
| 2026-04-11 10:00 | 51.25082 | 22.79071 | 1303 ft | 146 kts | 259° |
| 2026-04-11 10:00 | 51.24897 | 22.77478 | 1194 ft | 145 kts | 263° |
| 2026-04-11 10:00 | 51.24672 | 22.75954 | 1016 ft | 139 kts | 260° |
| 2026-04-11 10:00 | 51.24463 | 22.74450 | 844 ft | 139 kts | 259° |
| 2026-04-11 10:01 | 51.24247 | 22.72952 | 669 ft | 138 kts | 261° |
| 2026-04-11 10:01 | 51.24056 | 22.71623 | 644 ft | 97 kts | 258° |
| 2026-04-11 10:01 | 51.23954 | 22.70907 | 646 ft | 36 kts | 257° |
| 2026-04-11 10:01 | 51.23893 | 22.70497 | 641 ft | 44 kts | 257° |
| 2026-04-11 10:02 | 51.23817 | 22.69964 | 637 ft | 53 kts | 257° |
| 2026-04-11 10:02 | 51.23748 | 22.69631 | 639 ft | 9 kts | 207° |
| 2026-04-11 10:02 | 51.23695 | 22.69655 | 639 ft | 9 kts | 127° |
| 2026-04-11 10:02 | 51.23652 | 22.69776 | 639 ft | 15 kts | 152° |
| 2026-04-11 10:03 | 51.23630 | 22.69775 | 639 ft | 4 kts | 204° |
| 2026-04-11 10:03 | 51.23610 | 22.69694 | 639 ft | 11 kts | 271° |
| 2026-04-11 10:03 | 51.23637 | 22.69654 | 640 ft | 5 kts | 350° |
| 2026-04-11 10:03 | 51.23656 | 22.69648 | 639 ft | 0 kts | 347° |
| 2026-04-11 10:11 | 51.23682 | 22.69639 | 639 ft | 9 kts | 347° |
| 2026-04-11 10:11 | 51.23774 | 22.69685 | 638 ft | 23 kts | 66° |
| 2026-04-11 10:11 | 51.23824 | 22.70019 | 638 ft | 34 kts | 77° |
| 2026-04-11 10:12 | 51.23891 | 22.70477 | 637 ft | 45 kts | 77° |
| 2026-04-11 10:12 | 51.23959 | 22.70944 | 646 ft | 41 kts | 77° |
| 2026-04-11 10:12 | 51.23985 | 22.71297 | 647 ft | 24 kts | 109° |
| 2026-04-11 10:12 | 51.23851 | 22.71413 | 652 ft | 23 kts | 165° |
| 2026-04-11 10:13 | 51.23751 | 22.71451 | 652 ft | 7 kts | 155° |
| 2026-04-11 10:13 | 51.23721 | 22.71508 | 652 ft | 7 kts | 134° |
| 2026-04-11 10:13 | 51.23677 | 22.71534 | 652 ft | 7 kts | 167° |
| 2026-04-11 10:13 | 51.23657 | 22.71541 | 652 ft | 0 kts | 167° |